Terminal Aerodrome Forecast
Issued by NWS Lake Charles, LA

Home | Current Version | Previous Version | Text Only | Print | Product List | Glossary On
Versions: 1 2 3 4 5 6 7 8 9 10 11 12 13 14 15 16 17 18 19
000
FTUS44 KLCH 252320
TAFLCH
TAF
KLCH 252320Z 2600/2624 06010KT P6SM VCTS BKN016CB BKN022 OVC035
      TEMPO 2600/2604 3SM TSRA BR OVC006CB
     FM260600 03006KT P6SM VCSH OVC004
     FM261200 02007KT P6SM BKN004
     FM261500 03008KT P6SM BKN007=

USA.gov is the U.S. government's official web portal to all federal, state and local government web resources and services.